sensor_id;sensor_type;location;lat;lon;timestamp;P1;durP1;ratioP1;P2;durP2;ratioP2
55270;SDS011;41132;47.162;9.470;2022-07-11T00:01:49;4.45;;;1.52;;
55270;SDS011;41132;47.162;9.470;2022-07-11T00:04:14;4.57;;;1.40;;
55270;SDS011;41132;47.162;9.470;2022-07-11T00:06:40;4.68;;;1.55;;
55270;SDS011;41132;47.162;9.470;2022-07-11T00:09:05;9.00;;;2.08;;
55270;SDS011;41132;47.162;9.470;2022-07-11T00:11:31;2.65;;;1.25;;
55270;SDS011;41132;47.162;9.470;2022-07-11T00:13:56;3.80;;;1.40;;
55270;SDS011;41132;47.162;9.470;2022-07-11T00:16:21;2.60;;;1.20;;
55270;SDS011;41132;47.162;9.470;2022-07-11T00:18:47;3.83;;;1.50;;
55270;SDS011;41132;47.162;9.470;2022-07-11T00:21:12;3.83;;;1.30;;
55270;SDS011;41132;47.162;9.470;2022-07-11T00:23:38;3.15;;;1.42;;
55270;SDS011;41132;47.162;9.470;2022-07-11T00:26:03;4.25;;;1.55;;
55270;SDS011;41132;47.162;9.470;2022-07-11T00:28:29;3.30;;;1.23;;
55270;SDS011;41132;47.162;9.470;2022-07-11T00:30:55;3.53;;;1.30;;
55270;SDS011;41132;47.162;9.470;2022-07-11T00:33:20;3.97;;;1.42;;
55270;SDS011;41132;47.162;9.470;2022-07-11T00:35:46;3.50;;;1.20;;
55270;SDS011;41132;47.162;9.470;2022-07-11T00:38:11;3.00;;;1.40;;
55270;SDS011;41132;47.162;9.470;2022-07-11T00:40:36;4.80;;;1.50;;
55270;SDS011;41132;47.162;9.470;2022-07-11T00:43:05;4.88;;;1.80;;
55270;SDS011;41132;47.162;9.470;2022-07-11T00:45:31;3.38;;;1.48;;
55270;SDS011;41132;47.162;9.470;2022-07-11T00:47:57;3.13;;;1.40;;
55270;SDS011;41132;47.162;9.470;2022-07-11T00:50:24;3.42;;;1.38;;
55270;SDS011;41132;47.162;9.470;2022-07-11T00:52:50;4.50;;;1.38;;
55270;SDS011;41132;47.162;9.470;2022-07-11T00:55:17;2.65;;;1.23;;
55270;SDS011;41132;47.162;9.470;2022-07-11T00:57:43;3.35;;;1.40;;
55270;SDS011;41132;47.162;9.470;2022-07-11T01:00:09;3.15;;;1.38;;
55270;SDS011;41132;47.162;9.470;2022-07-11T01:02:36;2.90;;;1.30;;
55270;SDS011;41132;47.162;9.470;2022-07-11T01:05:01;5.22;;;1.40;;
55270;SDS011;41132;47.162;9.470;2022-07-11T01:07:27;3.88;;;1.63;;
55270;SDS011;41132;47.162;9.470;2022-07-11T01:09:54;3.70;;;1.50;;
55270;SDS011;41132;47.162;9.470;2022-07-11T01:12:20;3.28;;;1.50;;
55270;SDS011;41132;47.162;9.470;2022-07-11T01:14:55;2.13;;;1.17;;
55270;SDS011;41132;47.162;9.470;2022-07-11T01:17:24;3.15;;;1.30;;
55270;SDS011;41132;47.162;9.470;2022-07-11T01:19:49;2.42;;;1.27;;
55270;SDS011;41132;47.162;9.470;2022-07-11T01:22:15;3.50;;;1.40;;
55270;SDS011;41132;47.162;9.470;2022-07-11T01:24:44;4.18;;;1.40;;
55270;SDS011;41132;47.162;9.470;2022-07-11T01:27:10;4.22;;;1.60;;
55270;SDS011;41132;47.162;9.470;2022-07-11T01:29:36;3.55;;;1.60;;
55270;SDS011;41132;47.162;9.470;2022-07-11T01:32:01;3.75;;;1.50;;
55270;SDS011;41132;47.162;9.470;2022-07-11T01:34:27;2.40;;;1.30;;
55270;SDS011;41132;47.162;9.470;2022-07-11T01:36:53;2.92;;;1.38;;
55270;SDS011;41132;47.162;9.470;2022-07-11T01:39:18;4.50;;;1.58;;
55270;SDS011;41132;47.162;9.470;2022-07-11T01:41:44;6.72;;;1.50;;
55270;SDS011;41132;47.162;9.470;2022-07-11T01:44:09;4.03;;;1.50;;
55270;SDS011;41132;47.162;9.470;2022-07-11T01:46:34;3.83;;;1.40;;
55270;SDS011;41132;47.162;9.470;2022-07-11T01:49:00;4.60;;;1.40;;
55270;SDS011;41132;47.162;9.470;2022-07-11T01:51:25;4.97;;;1.90;;
55270;SDS011;41132;47.162;9.470;2022-07-11T01:53:53;3.63;;;1.58;;
55270;SDS011;41132;47.162;9.470;2022-07-11T01:56:20;3.00;;;1.40;;
55270;SDS011;41132;47.162;9.470;2022-07-11T01:58:46;3.05;;;1.40;;
55270;SDS011;41132;47.162;9.470;2022-07-11T02:01:11;3.20;;;1.40;;
55270;SDS011;41132;47.162;9.470;2022-07-11T02:03:37;3.05;;;1.40;;
55270;SDS011;41132;47.162;9.470;2022-07-11T02:06:02;3.28;;;1.42;;
55270;SDS011;41132;47.162;9.470;2022-07-11T02:08:28;3.85;;;1.40;;
55270;SDS011;41132;47.162;9.470;2022-07-11T02:10:53;4.13;;;1.88;;
55270;SDS011;41132;47.162;9.470;2022-07-11T02:13:19;3.30;;;1.33;;
55270;SDS011;41132;47.162;9.470;2022-07-11T02:15:46;5.78;;;1.80;;
55270;SDS011;41132;47.162;9.470;2022-07-11T02:18:13;3.58;;;1.40;;
55270;SDS011;41132;47.162;9.470;2022-07-11T02:20:39;3.75;;;1.73;;
55270;SDS011;41132;47.162;9.470;2022-07-11T02:23:07;3.53;;;1.45;;
55270;SDS011;41132;47.162;9.470;2022-07-11T02:25:33;3.83;;;1.65;;
55270;SDS011;41132;47.162;9.470;2022-07-11T02:28:00;4.05;;;1.70;;
55270;SDS011;41132;47.162;9.470;2022-07-11T02:30:26;3.47;;;1.55;;
55270;SDS011;41132;47.162;9.470;2022-07-11T02:32:51;3.95;;;1.70;;
55270;SDS011;41132;47.162;9.470;2022-07-11T02:35:17;3.80;;;1.60;;
55270;SDS011;41132;47.162;9.470;2022-07-11T02:37:43;3.78;;;1.88;;
55270;SDS011;41132;47.162;9.470;2022-07-11T02:40:09;6.68;;;1.63;;
55270;SDS011;41132;47.162;9.470;2022-07-11T02:42:35;3.30;;;1.60;;
55270;SDS011;41132;47.162;9.470;2022-07-11T02:45:01;2.72;;;1.38;;
55270;SDS011;41132;47.162;9.470;2022-07-11T02:47:27;3.50;;;1.70;;
55270;SDS011;41132;47.162;9.470;2022-07-11T02:49:52;3.95;;;1.50;;
55270;SDS011;41132;47.162;9.470;2022-07-11T02:52:17;4.13;;;1.50;;
55270;SDS011;41132;47.162;9.470;2022-07-11T02:54:43;4.55;;;1.50;;
55270;SDS011;41132;47.162;9.470;2022-07-11T02:57:08;3.17;;;1.40;;
55270;SDS011;41132;47.162;9.470;2022-07-11T02:59:33;2.92;;;1.55;;
55270;SDS011;41132;47.162;9.470;2022-07-11T03:01:59;3.45;;;1.40;;
55270;SDS011;41132;47.162;9.470;2022-07-11T03:04:24;6.03;;;1.58;;
55270;SDS011;41132;47.162;9.470;2022-07-11T03:06:50;7.18;;;1.67;;
55270;SDS011;41132;47.162;9.470;2022-07-11T03:09:16;3.85;;;1.80;;
55270;SDS011;41132;47.162;9.470;2022-07-11T03:11:41;4.20;;;1.48;;
55270;SDS011;41132;47.162;9.470;2022-07-11T03:14:07;3.13;;;1.40;;
55270;SDS011;41132;47.162;9.470;2022-07-11T03:16:34;2.63;;;1.50;;
55270;SDS011;41132;47.162;9.470;2022-07-11T03:18:59;5.25;;;1.73;;
55270;SDS011;41132;47.162;9.470;2022-07-11T03:21:25;5.57;;;1.80;;
55270;SDS011;41132;47.162;9.470;2022-07-11T03:23:50;9.25;;;1.80;;
55270;SDS011;41132;47.162;9.470;2022-07-11T03:26:16;6.03;;;1.60;;
55270;SDS011;41132;47.162;9.470;2022-07-11T03:28:42;6.90;;;1.65;;
55270;SDS011;41132;47.162;9.470;2022-07-11T03:31:08;9.45;;;2.20;;
55270;SDS011;41132;47.162;9.470;2022-07-11T03:33:33;7.43;;;2.00;;
55270;SDS011;41132;47.162;9.470;2022-07-11T03:35:59;5.53;;;1.80;;
55270;SDS011;41132;47.162;9.470;2022-07-11T03:38:25;3.95;;;1.70;;
55270;SDS011;41132;47.162;9.470;2022-07-11T03:40:50;13.77;;;2.50;;
55270;SDS011;41132;47.162;9.470;2022-07-11T03:43:15;5.40;;;1.63;;
55270;SDS011;41132;47.162;9.470;2022-07-11T03:45:41;7.00;;;1.80;;
55270;SDS011;41132;47.162;9.470;2022-07-11T03:48:07;3.25;;;1.80;;
55270;SDS011;41132;47.162;9.470;2022-07-11T03:50:33;2.85;;;1.40;;
55270;SDS011;41132;47.162;9.470;2022-07-11T03:52:59;5.47;;;1.83;;
55270;SDS011;41132;47.162;9.470;2022-07-11T03:55:25;6.05;;;1.63;;
55270;SDS011;41132;47.162;9.470;2022-07-11T03:57:51;4.25;;;1.58;;
55270;SDS011;41132;47.162;9.470;2022-07-11T04:00:16;3.83;;;1.60;;
55270;SDS011;41132;47.162;9.470;2022-07-11T04:02:42;3.28;;;1.45;;
55270;SDS011;41132;47.162;9.470;2022-07-11T04:05:08;4.95;;;1.50;;
55270;SDS011;41132;47.162;9.470;2022-07-11T04:07:33;3.22;;;1.60;;
55270;SDS011;41132;47.162;9.470;2022-07-11T04:09:59;3.40;;;1.60;;
55270;SDS011;41132;47.162;9.470;2022-07-11T04:12:24;4.43;;;1.60;;
55270;SDS011;41132;47.162;9.470;2022-07-11T04:14:50;4.15;;;1.77;;
55270;SDS011;41132;47.162;9.470;2022-07-11T04:17:15;6.45;;;1.80;;
55270;SDS011;41132;47.162;9.470;2022-07-11T04:19:41;3.47;;;1.52;;
55270;SDS011;41132;47.162;9.470;2022-07-11T04:22:10;3.45;;;1.48;;
55270;SDS011;41132;47.162;9.470;2022-07-11T04:24:36;5.57;;;2.08;;
55270;SDS011;41132;47.162;9.470;2022-07-11T04:27:01;3.90;;;1.80;;
55270;SDS011;41132;47.162;9.470;2022-07-11T04:29:27;3.47;;;1.70;;
55270;SDS011;41132;47.162;9.470;2022-07-11T04:31:52;3.13;;;1.48;;
55270;SDS011;41132;47.162;9.470;2022-07-11T04:34:17;4.70;;;1.50;;
55270;SDS011;41132;47.162;9.470;2022-07-11T04:36:43;4.22;;;1.67;;
55270;SDS011;41132;47.162;9.470;2022-07-11T04:39:09;5.80;;;2.35;;
55270;SDS011;41132;47.162;9.470;2022-07-11T04:41:35;4.82;;;1.90;;
55270;SDS011;41132;47.162;9.470;2022-07-11T04:44:00;4.45;;;1.92;;
55270;SDS011;41132;47.162;9.470;2022-07-11T04:46:26;4.32;;;1.70;;
55270;SDS011;41132;47.162;9.470;2022-07-11T04:48:51;9.45;;;2.40;;
55270;SDS011;41132;47.162;9.470;2022-07-11T04:51:17;7.10;;;2.13;;
55270;SDS011;41132;47.162;9.470;2022-07-11T04:53:42;8.75;;;2.33;;
55270;SDS011;41132;47.162;9.470;2022-07-11T04:56:08;5.95;;;2.20;;
55270;SDS011;41132;47.162;9.470;2022-07-11T04:58:33;6.60;;;2.20;;
55270;SDS011;41132;47.162;9.470;2022-07-11T05:01:00;8.40;;;2.20;;
55270;SDS011;41132;47.162;9.470;2022-07-11T05:03:25;5.55;;;2.17;;
55270;SDS011;41132;47.162;9.470;2022-07-11T05:05:51;5.88;;;2.05;;
55270;SDS011;41132;47.162;9.470;2022-07-11T05:08:16;9.70;;;2.70;;
55270;SDS011;41132;47.162;9.470;2022-07-11T05:10:41;6.10;;;2.15;;
55270;SDS011;41132;47.162;9.470;2022-07-11T05:13:07;4.53;;;2.00;;
55270;SDS011;41132;47.162;9.470;2022-07-11T05:15:32;8.52;;;2.00;;
55270;SDS011;41132;47.162;9.470;2022-07-11T05:17:58;6.22;;;2.20;;
55270;SDS011;41132;47.162;9.470;2022-07-11T05:20:23;6.07;;;1.88;;
55270;SDS011;41132;47.162;9.470;2022-07-11T05:22:48;5.60;;;2.10;;
55270;SDS011;41132;47.162;9.470;2022-07-11T05:25:14;6.13;;;2.05;;
55270;SDS011;41132;47.162;9.470;2022-07-11T05:27:39;4.82;;;2.08;;
55270;SDS011;41132;47.162;9.470;2022-07-11T05:30:05;5.85;;;2.10;;
55270;SDS011;41132;47.162;9.470;2022-07-11T05:32:31;7.35;;;2.13;;
55270;SDS011;41132;47.162;9.470;2022-07-11T05:34:56;4.38;;;1.90;;
55270;SDS011;41132;47.162;9.470;2022-07-11T05:37:23;7.63;;;2.20;;
55270;SDS011;41132;47.162;9.470;2022-07-11T05:39:48;10.18;;;2.33;;
55270;SDS011;41132;47.162;9.470;2022-07-11T05:42:15;7.03;;;2.38;;
55270;SDS011;41132;47.162;9.470;2022-07-11T05:44:41;7.80;;;2.40;;
55270;SDS011;41132;47.162;9.470;2022-07-11T05:47:06;6.57;;;2.30;;
55270;SDS011;41132;47.162;9.470;2022-07-11T05:49:32;5.68;;;2.55;;
55270;SDS011;41132;47.162;9.470;2022-07-11T05:51:57;5.38;;;2.30;;
55270;SDS011;41132;47.162;9.470;2022-07-11T05:54:23;6.40;;;2.28;;
55270;SDS011;41132;47.162;9.470;2022-07-11T05:56:48;5.45;;;2.10;;
55270;SDS011;41132;47.162;9.470;2022-07-11T05:59:14;5.43;;;2.42;;
55270;SDS011;41132;47.162;9.470;2022-07-11T06:01:39;7.60;;;2.20;;
55270;SDS011;41132;47.162;9.470;2022-07-11T06:04:05;8.80;;;2.55;;
55270;SDS011;41132;47.162;9.470;2022-07-11T06:06:31;8.63;;;2.85;;
55270;SDS011;41132;47.162;9.470;2022-07-11T06:08:57;6.57;;;2.38;;
55270;SDS011;41132;47.162;9.470;2022-07-11T06:11:22;11.18;;;2.80;;
55270;SDS011;41132;47.162;9.470;2022-07-11T06:13:48;13.48;;;2.92;;
55270;SDS011;41132;47.162;9.470;2022-07-11T06:16:17;8.48;;;2.72;;
55270;SDS011;41132;47.162;9.470;2022-07-11T06:18:42;9.52;;;2.40;;
55270;SDS011;41132;47.162;9.470;2022-07-11T06:21:08;11.90;;;3.08;;
55270;SDS011;41132;47.162;9.470;2022-07-11T06:23:33;6.13;;;2.38;;
55270;SDS011;41132;47.162;9.470;2022-07-11T06:26:02;7.28;;;2.20;;
55270;SDS011;41132;47.162;9.470;2022-07-11T06:28:29;4.82;;;2.03;;
55270;SDS011;41132;47.162;9.470;2022-07-11T06:30:54;5.10;;;1.77;;
55270;SDS011;41132;47.162;9.470;2022-07-11T06:33:20;4.68;;;1.63;;
55270;SDS011;41132;47.162;9.470;2022-07-11T06:35:46;4.13;;;1.80;;
55270;SDS011;41132;47.162;9.470;2022-07-11T06:38:12;3.40;;;1.52;;
55270;SDS011;41132;47.162;9.470;2022-07-11T06:40:39;5.03;;;1.90;;
55270;SDS011;41132;47.162;9.470;2022-07-11T06:43:06;5.20;;;1.88;;
55270;SDS011;41132;47.162;9.470;2022-07-11T06:45:32;3.97;;;1.65;;
55270;SDS011;41132;47.162;9.470;2022-07-11T06:48:01;3.85;;;1.52;;
55270;SDS011;41132;47.162;9.470;2022-07-11T06:50:27;5.38;;;2.13;;
55270;SDS011;41132;47.162;9.470;2022-07-11T06:52:52;6.32;;;1.90;;
55270;SDS011;41132;47.162;9.470;2022-07-11T06:55:18;3.53;;;1.75;;
55270;SDS011;41132;47.162;9.470;2022-07-11T06:57:43;5.90;;;1.70;;
55270;SDS011;41132;47.162;9.470;2022-07-11T07:00:09;5.03;;;1.83;;
55270;SDS011;41132;47.162;9.470;2022-07-11T07:02:35;4.30;;;2.10;;
55270;SDS011;41132;47.162;9.470;2022-07-11T07:05:00;5.57;;;1.95;;
55270;SDS011;41132;47.162;9.470;2022-07-11T07:07:26;5.82;;;2.35;;
55270;SDS011;41132;47.162;9.470;2022-07-11T07:09:52;4.63;;;2.40;;
55270;SDS011;41132;47.162;9.470;2022-07-11T07:12:19;7.03;;;2.30;;
55270;SDS011;41132;47.162;9.470;2022-07-11T07:14:45;5.35;;;1.70;;
55270;SDS011;41132;47.162;9.470;2022-07-11T07:17:10;3.85;;;1.60;;
55270;SDS011;41132;47.162;9.470;2022-07-11T07:19:36;5.38;;;1.60;;
55270;SDS011;41132;47.162;9.470;2022-07-11T07:22:01;5.32;;;1.90;;
55270;SDS011;41132;47.162;9.470;2022-07-11T07:24:26;4.32;;;1.85;;
55270;SDS011;41132;47.162;9.470;2022-07-11T07:26:52;6.35;;;2.03;;
55270;SDS011;41132;47.162;9.470;2022-07-11T07:29:17;5.88;;;1.88;;
55270;SDS011;41132;47.162;9.470;2022-07-11T07:31:42;3.47;;;1.70;;
55270;SDS011;41132;47.162;9.470;2022-07-11T07:34:08;7.50;;;2.25;;
55270;SDS011;41132;47.162;9.470;2022-07-11T07:36:34;6.93;;;1.90;;
55270;SDS011;41132;47.162;9.470;2022-07-11T07:38:59;4.80;;;1.70;;
55270;SDS011;41132;47.162;9.470;2022-07-11T07:41:25;4.20;;;1.58;;
55270;SDS011;41132;47.162;9.470;2022-07-11T07:43:52;3.58;;;1.70;;
55270;SDS011;41132;47.162;9.470;2022-07-11T07:46:17;3.53;;;1.50;;
55270;SDS011;41132;47.162;9.470;2022-07-11T07:48:43;4.70;;;1.52;;
55270;SDS011;41132;47.162;9.470;2022-07-11T07:51:08;4.53;;;1.80;;
55270;SDS011;41132;47.162;9.470;2022-07-11T07:53:34;2.90;;;1.30;;
55270;SDS011;41132;47.162;9.470;2022-07-11T07:56:00;4.45;;;1.60;;
55270;SDS011;41132;47.162;9.470;2022-07-11T07:58:26;3.83;;;1.35;;
55270;SDS011;41132;47.162;9.470;2022-07-11T08:00:51;3.90;;;1.40;;
55270;SDS011;41132;47.162;9.470;2022-07-11T08:03:35;4.10;;;1.60;;
55270;SDS011;41132;47.162;9.470;2022-07-11T08:06:00;6.15;;;1.80;;
55270;SDS011;41132;47.162;9.470;2022-07-11T08:08:26;3.28;;;1.50;;
55270;SDS011;41132;47.162;9.470;2022-07-11T08:10:51;4.30;;;1.75;;
55270;SDS011;41132;47.162;9.470;2022-07-11T08:13:17;4.05;;;1.60;;
55270;SDS011;41132;47.162;9.470;2022-07-11T08:15:43;2.95;;;1.50;;
55270;SDS011;41132;47.162;9.470;2022-07-11T08:18:08;3.90;;;1.70;;
55270;SDS011;41132;47.162;9.470;2022-07-11T08:20:34;5.10;;;1.60;;
55270;SDS011;41132;47.162;9.470;2022-07-11T08:22:59;2.92;;;1.30;;
55270;SDS011;41132;47.162;9.470;2022-07-11T08:25:26;4.50;;;1.63;;
55270;SDS011;41132;47.162;9.470;2022-07-11T08:27:53;3.65;;;1.80;;
55270;SDS011;41132;47.162;9.470;2022-07-11T08:30:18;3.95;;;1.45;;
55270;SDS011;41132;47.162;9.470;2022-07-11T08:32:44;5.40;;;1.60;;
55270;SDS011;41132;47.162;9.470;2022-07-11T08:35:09;8.95;;;1.60;;
55270;SDS011;41132;47.162;9.470;2022-07-11T08:37:36;4.63;;;1.50;;
55270;SDS011;41132;47.162;9.470;2022-07-11T08:40:02;5.03;;;1.80;;
55270;SDS011;41132;47.162;9.470;2022-07-11T08:42:28;4.70;;;1.42;;
55270;SDS011;41132;47.162;9.470;2022-07-11T08:44:55;5.28;;;1.70;;
55270;SDS011;41132;47.162;9.470;2022-07-11T08:47:22;4.22;;;1.50;;
55270;SDS011;41132;47.162;9.470;2022-07-11T08:49:48;3.83;;;1.67;;
55270;SDS011;41132;47.162;9.470;2022-07-11T08:52:15;4.68;;;1.50;;
55270;SDS011;41132;47.162;9.470;2022-07-11T08:54:41;3.70;;;1.58;;
55270;SDS011;41132;47.162;9.470;2022-07-11T08:57:06;3.53;;;1.42;;
55270;SDS011;41132;47.162;9.470;2022-07-11T08:59:33;5.28;;;1.95;;
55270;SDS011;41132;47.162;9.470;2022-07-11T09:02:01;4.72;;;1.80;;
55270;SDS011;41132;47.162;9.470;2022-07-11T09:04:28;4.10;;;1.60;;
55270;SDS011;41132;47.162;9.470;2022-07-11T09:06:55;4.72;;;1.63;;
55270;SDS011;41132;47.162;9.470;2022-07-11T09:09:21;4.28;;;1.70;;
55270;SDS011;41132;47.162;9.470;2022-07-11T09:11:51;3.97;;;1.67;;
55270;SDS011;41132;47.162;9.470;2022-07-11T09:14:29;4.55;;;2.05;;
55270;SDS011;41132;47.162;9.470;2022-07-11T09:16:56;4.05;;;1.65;;
55270;SDS011;41132;47.162;9.470;2022-07-11T09:19:26;6.82;;;2.78;;
55270;SDS011;41132;47.162;9.470;2022-07-11T09:22:00;4.65;;;1.90;;
55270;SDS011;41132;47.162;9.470;2022-07-11T09:24:59;5.15;;;1.42;;
55270;SDS011;41132;47.162;9.470;2022-07-11T09:27:54;4.45;;;1.75;;
55270;SDS011;41132;47.162;9.470;2022-07-11T09:35:18;4.20;;;1.58;;
55270;SDS011;41132;47.162;9.470;2022-07-11T09:37:43;4.97;;;1.80;;
55270;SDS011;41132;47.162;9.470;2022-07-11T09:40:12;6.13;;;2.10;;
55270;SDS011;41132;47.162;9.470;2022-07-11T09:42:48;6.63;;;1.77;;
55270;SDS011;41132;47.162;9.470;2022-07-11T09:45:15;4.03;;;1.75;;
55270;SDS011;41132;47.162;9.470;2022-07-11T09:47:45;4.40;;;1.70;;
55270;SDS011;41132;47.162;9.470;2022-07-11T09:52:57;3.85;;;1.63;;
55270;SDS011;41132;47.162;9.470;2022-07-11T09:55:37;5.30;;;1.98;;
55270;SDS011;41132;47.162;9.470;2022-07-11T09:58:04;5.60;;;1.98;;
55270;SDS011;41132;47.162;9.470;2022-07-11T10:00:34;3.55;;;1.65;;
55270;SDS011;41132;47.162;9.470;2022-07-11T10:03:01;4.93;;;2.05;;
55270;SDS011;41132;47.162;9.470;2022-07-11T10:05:28;4.63;;;1.63;;
55270;SDS011;41132;47.162;9.470;2022-07-11T10:07:54;3.47;;;1.50;;
55270;SDS011;41132;47.162;9.470;2022-07-11T10:10:20;4.28;;;2.00;;
55270;SDS011;41132;47.162;9.470;2022-07-11T10:12:46;3.80;;;1.63;;
55270;SDS011;41132;47.162;9.470;2022-07-11T10:15:14;5.72;;;1.60;;
55270;SDS011;41132;47.162;9.470;2022-07-11T10:20:45;4.30;;;1.85;;
55270;SDS011;41132;47.162;9.470;2022-07-11T10:25:58;4.57;;;1.50;;
55270;SDS011;41132;47.162;9.470;2022-07-11T10:31:23;5.35;;;1.90;;
55270;SDS011;41132;47.162;9.470;2022-07-11T10:36:26;5.53;;;1.83;;
55270;SDS011;41132;47.162;9.470;2022-07-11T10:41:50;5.00;;;2.05;;
55270;SDS011;41132;47.162;9.470;2022-07-11T10:44:16;4.35;;;1.67;;
55270;SDS011;41132;47.162;9.470;2022-07-11T10:46:42;4.50;;;1.80;;
55270;SDS011;41132;47.162;9.470;2022-07-11T10:52:04;3.72;;;1.63;;
55270;SDS011;41132;47.162;9.470;2022-07-11T11:00:05;6.75;;;1.70;;
55270;SDS011;41132;47.162;9.470;2022-07-11T11:03:19;5.40;;;2.00;;
55270;SDS011;41132;47.162;9.470;2022-07-11T11:05:50;4.15;;;1.58;;
55270;SDS011;41132;47.162;9.470;2022-07-11T11:10:57;3.67;;;1.40;;
55270;SDS011;41132;47.162;9.470;2022-07-11T11:13:27;3.60;;;1.50;;
55270;SDS011;41132;47.162;9.470;2022-07-11T11:15:57;4.65;;;1.67;;
55270;SDS011;41132;47.162;9.470;2022-07-11T11:18:31;4.25;;;1.50;;
55270;SDS011;41132;47.162;9.470;2022-07-11T11:29:00;2.95;;;1.50;;
55270;SDS011;41132;47.162;9.470;2022-07-11T11:31:27;4.50;;;1.70;;
55270;SDS011;41132;47.162;9.470;2022-07-11T11:33:57;5.05;;;2.20;;
55270;SDS011;41132;47.162;9.470;2022-07-11T11:36:24;3.80;;;1.63;;
55270;SDS011;41132;47.162;9.470;2022-07-11T11:38:50;3.83;;;1.67;;
55270;SDS011;41132;47.162;9.470;2022-07-11T11:41:27;3.80;;;1.60;;
55270;SDS011;41132;47.162;9.470;2022-07-11T11:43:56;7.10;;;1.80;;
55270;SDS011;41132;47.162;9.470;2022-07-11T11:46:24;3.97;;;1.80;;
55270;SDS011;41132;47.162;9.470;2022-07-11T11:48:54;6.78;;;1.67;;
55270;SDS011;41132;47.162;9.470;2022-07-11T11:51:21;3.55;;;1.60;;
55270;SDS011;41132;47.162;9.470;2022-07-11T11:53:48;4.53;;;1.75;;
55270;SDS011;41132;47.162;9.470;2022-07-11T11:56:25;5.80;;;1.65;;
55270;SDS011;41132;47.162;9.470;2022-07-11T11:58:55;3.15;;;1.60;;
55270;SDS011;41132;47.162;9.470;2022-07-11T12:04:00;4.85;;;1.70;;
55270;SDS011;41132;47.162;9.470;2022-07-11T12:06:27;4.78;;;1.80;;
55270;SDS011;41132;47.162;9.470;2022-07-11T12:09:00;4.47;;;1.88;;
55270;SDS011;41132;47.162;9.470;2022-07-11T12:11:30;4.47;;;1.70;;
55270;SDS011;41132;47.162;9.470;2022-07-11T12:13:57;3.75;;;1.55;;
55270;SDS011;41132;47.162;9.470;2022-07-11T12:16:24;4.40;;;1.58;;
55270;SDS011;41132;47.162;9.470;2022-07-11T12:19:09;4.65;;;1.60;;
55270;SDS011;41132;47.162;9.470;2022-07-11T12:21:37;6.07;;;1.88;;
55270;SDS011;41132;47.162;9.470;2022-07-11T12:24:04;5.20;;;1.70;;
55270;SDS011;41132;47.162;9.470;2022-07-11T12:26:35;4.60;;;1.85;;
55270;SDS011;41132;47.162;9.470;2022-07-11T12:31:48;9.23;;;1.55;;
55270;SDS011;41132;47.162;9.470;2022-07-11T12:34:15;4.65;;;1.73;;
55270;SDS011;41132;47.162;9.470;2022-07-11T12:36:42;5.18;;;1.77;;
55270;SDS011;41132;47.162;9.470;2022-07-11T12:39:08;6.95;;;2.15;;
55270;SDS011;41132;47.162;9.470;2022-07-11T12:41:34;3.20;;;1.52;;
55270;SDS011;41132;47.162;9.470;2022-07-11T12:44:00;4.03;;;1.77;;
55270;SDS011;41132;47.162;9.470;2022-07-11T12:46:45;4.32;;;1.73;;
55270;SDS011;41132;47.162;9.470;2022-07-11T12:49:13;5.75;;;2.10;;
55270;SDS011;41132;47.162;9.470;2022-07-11T12:51:40;3.42;;;1.80;;
55270;SDS011;41132;47.162;9.470;2022-07-11T12:54:08;7.03;;;1.70;;
55270;SDS011;41132;47.162;9.470;2022-07-11T12:56:38;4.43;;;1.63;;
55270;SDS011;41132;47.162;9.470;2022-07-11T12:59:04;4.00;;;1.40;;
55270;SDS011;41132;47.162;9.470;2022-07-11T13:01:31;4.38;;;1.80;;
55270;SDS011;41132;47.162;9.470;2022-07-11T13:03:58;5.30;;;1.70;;
55270;SDS011;41132;47.162;9.470;2022-07-11T13:06:24;5.40;;;1.85;;
55270;SDS011;41132;47.162;9.470;2022-07-11T13:09:08;3.63;;;1.60;;
55270;SDS011;41132;47.162;9.470;2022-07-11T13:11:34;4.25;;;1.67;;
55270;SDS011;41132;47.162;9.470;2022-07-11T13:14:00;7.65;;;1.80;;
55270;SDS011;41132;47.162;9.470;2022-07-11T13:16:25;5.22;;;1.80;;
55270;SDS011;41132;47.162;9.470;2022-07-11T13:18:51;7.05;;;1.73;;
55270;SDS011;41132;47.162;9.470;2022-07-11T13:21:16;5.15;;;1.80;;
55270;SDS011;41132;47.162;9.470;2022-07-11T13:23:42;3.70;;;1.60;;
55270;SDS011;41132;47.162;9.470;2022-07-11T13:26:09;3.60;;;2.00;;
55270;SDS011;41132;47.162;9.470;2022-07-11T13:28:35;3.95;;;1.70;;
55270;SDS011;41132;47.162;9.470;2022-07-11T13:31:01;5.85;;;1.60;;
55270;SDS011;41132;47.162;9.470;2022-07-11T13:33:30;3.92;;;1.63;;
55270;SDS011;41132;47.162;9.470;2022-07-11T13:35:55;5.40;;;1.65;;
55270;SDS011;41132;47.162;9.470;2022-07-11T13:38:21;6.80;;;1.90;;
55270;SDS011;41132;47.162;9.470;2022-07-11T13:40:46;4.38;;;1.80;;
55270;SDS011;41132;47.162;9.470;2022-07-11T13:43:12;4.88;;;1.70;;
55270;SDS011;41132;47.162;9.470;2022-07-11T13:45:39;4.13;;;1.83;;
55270;SDS011;41132;47.162;9.470;2022-07-11T13:48:05;4.07;;;1.65;;
55270;SDS011;41132;47.162;9.470;2022-07-11T13:50:30;4.90;;;1.88;;
55270;SDS011;41132;47.162;9.470;2022-07-11T13:52:56;4.53;;;1.80;;
55270;SDS011;41132;47.162;9.470;2022-07-11T13:55:22;5.13;;;1.67;;
55270;SDS011;41132;47.162;9.470;2022-07-11T13:57:51;3.50;;;1.50;;
55270;SDS011;41132;47.162;9.470;2022-07-11T14:00:18;4.85;;;1.70;;
55270;SDS011;41132;47.162;9.470;2022-07-11T14:02:44;5.20;;;1.92;;
55270;SDS011;41132;47.162;9.470;2022-07-11T14:05:10;3.97;;;1.50;;
55270;SDS011;41132;47.162;9.470;2022-07-11T14:07:36;5.63;;;1.75;;
55270;SDS011;41132;47.162;9.470;2022-07-11T14:10:03;4.05;;;1.50;;
55270;SDS011;41132;47.162;9.470;2022-07-11T14:12:29;4.45;;;1.60;;
55270;SDS011;41132;47.162;9.470;2022-07-11T14:14:56;4.50;;;1.65;;
55270;SDS011;41132;47.162;9.470;2022-07-11T14:17:21;4.85;;;1.67;;
55270;SDS011;41132;47.162;9.470;2022-07-11T14:19:47;3.42;;;1.50;;
55270;SDS011;41132;47.162;9.470;2022-07-11T14:22:12;3.75;;;1.58;;
55270;SDS011;41132;47.162;9.470;2022-07-11T14:24:38;3.22;;;1.42;;
55270;SDS011;41132;47.162;9.470;2022-07-11T14:27:03;3.45;;;1.63;;
55270;SDS011;41132;47.162;9.470;2022-07-11T14:29:29;4.00;;;1.60;;
55270;SDS011;41132;47.162;9.470;2022-07-11T14:31:56;5.43;;;1.60;;
55270;SDS011;41132;47.162;9.470;2022-07-11T14:34:21;3.75;;;1.60;;
55270;SDS011;41132;47.162;9.470;2022-07-11T14:36:47;4.15;;;1.52;;
55270;SDS011;41132;47.162;9.470;2022-07-11T14:39:13;4.07;;;1.63;;
55270;SDS011;41132;47.162;9.470;2022-07-11T14:41:39;4.53;;;1.60;;
55270;SDS011;41132;47.162;9.470;2022-07-11T14:44:04;4.22;;;1.27;;
55270;SDS011;41132;47.162;9.470;2022-07-11T14:46:30;6.53;;;1.58;;
55270;SDS011;41132;47.162;9.470;2022-07-11T14:48:55;4.72;;;1.55;;
55270;SDS011;41132;47.162;9.470;2022-07-11T14:51:21;3.97;;;1.60;;
55270;SDS011;41132;47.162;9.470;2022-07-11T14:53:46;3.08;;;1.40;;
55270;SDS011;41132;47.162;9.470;2022-07-11T14:56:11;4.53;;;1.45;;
55270;SDS011;41132;47.162;9.470;2022-07-11T14:58:37;3.83;;;1.52;;
55270;SDS011;41132;47.162;9.470;2022-07-11T15:01:03;4.28;;;1.60;;
55270;SDS011;41132;47.162;9.470;2022-07-11T15:03:28;5.18;;;1.95;;
55270;SDS011;41132;47.162;9.470;2022-07-11T15:06:02;7.75;;;1.60;;
55270;SDS011;41132;47.162;9.470;2022-07-11T15:08:29;4.72;;;1.70;;
55270;SDS011;41132;47.162;9.470;2022-07-11T15:11:12;2.78;;;1.40;;
55270;SDS011;41132;47.162;9.470;2022-07-11T15:13:56;4.82;;;1.35;;
55270;SDS011;41132;47.162;9.470;2022-07-11T15:16:22;3.72;;;1.50;;
55270;SDS011;41132;47.162;9.470;2022-07-11T15:18:47;7.88;;;1.50;;
55270;SDS011;41132;47.162;9.470;2022-07-11T15:21:13;7.75;;;1.50;;
55270;SDS011;41132;47.162;9.470;2022-07-11T15:23:38;4.00;;;1.60;;
55270;SDS011;41132;47.162;9.470;2022-07-11T15:26:04;4.45;;;1.50;;
55270;SDS011;41132;47.162;9.470;2022-07-11T15:28:29;2.78;;;1.20;;
55270;SDS011;41132;47.162;9.470;2022-07-11T15:30:55;3.72;;;1.50;;
55270;SDS011;41132;47.162;9.470;2022-07-11T15:33:21;3.38;;;1.20;;